Time;durP1;ratioP1;P1;durP2;ratioP2;P2;SDS_P1;SDS_P2;PMS_P1;PMS_P2;Temp;Humidity;BMP_temperature;BMP_pressure;BME280_temperature;BME280_humidity;BME280_pressure;Samples;Min_cycle;Max_cycle;Signal;HPM_P1;HPM_P2
2021/07/02 00:00:40;;;;;;;24.55;17.45;;;;;;;20.80;65.25;101215.41;4932792;29;20055;-72
2021/07/02 00:03:08;;;;;;;21.60;17.33;;;;;;;20.86;65.06;101208.34;4953915;29;20051;-72
2021/07/02 00:05:35;;;;;;;21.40;17.60;;;;;;;20.97;64.71;101206.53;4905329;29;20052;-73
2021/07/02 00:08:03;;;;;;;21.38;17.55;;;;;;;20.92;64.91;101209.66;4937071;29;20047;-73
2021/07/02 00:10:31;;;;;;;22.30;18.20;;;;;;;20.85;65.21;101208.72;4907055;29;20051;-73
2021/07/02 00:12:58;;;;;;;21.17;17.92;;;;;;;20.80;65.62;101206.22;4935277;29;20052;-77
2021/07/02 00:15:26;;;;;;;25.40;18.90;;;;;;;20.75;65.54;101203.72;4903340;29;20062;-73
2021/07/02 00:17:53;;;;;;;22.98;18.23;;;;;;;20.67;66.14;101199.97;4902848;29;20063;-76
2021/07/02 00:20:20;;;;;;;24.23;18.73;;;;;;;20.52;66.65;101200.06;4946809;29;20067;-72
2021/07/02 00:22:48;;;;;;;23.42;18.08;;;;;;;20.38;67.13;101205.38;4953773;29;20051;-73
2021/07/02 00:25:16;;;;;;;22.70;18.23;;;;;;;20.42;67.58;101207.03;4936369;29;20058;-73
2021/07/02 00:27:44;;;;;;;21.52;18.60;;;;;;;20.36;67.63;101210.50;4936316;29;20048;-74
2021/07/02 00:30:15;;;;;;;19.35;17.17;;;;;;;20.24;68.11;101210.66;4925206;29;20052;-72
2021/07/02 00:32:42;;;;;;;20.55;18.35;;;;;;;20.26;67.88;101205.50;4901100;29;20063;-75
2021/07/02 00:35:10;;;;;;;20.65;17.63;;;;;;;20.28;68.05;101212.34;4917239;29;20455;-73
2021/07/02 00:37:38;;;;;;;22.40;17.52;;;;;;;20.25;68.03;101210.28;4916289;29;20052;-72
2021/07/02 00:40:06;;;;;;;22.70;17.60;;;;;;;20.34;68.19;101210.88;4894495;29;20407;-72
2021/07/02 00:42:33;;;;;;;22.83;17.50;;;;;;;20.22;68.48;101216.63;4952147;29;20051;-72
2021/07/02 00:45:03;;;;;;;21.13;18.60;;;;;;;20.38;68.05;101210.97;4920171;29;20062;-73
2021/07/02 00:47:32;;;;;;;21.65;18.67;;;;;;;20.33;67.79;101214.06;4921087;29;20043;-72
2021/07/02 00:50:02;;;;;;;22.08;17.80;;;;;;;20.33;67.94;101209.25;4927221;29;20059;-73
2021/07/02 00:52:30;;;;;;;20.40;17.73;;;;;;;20.12;69.04;101212.34;4916552;29;20063;-73
2021/07/02 00:54:58;;;;;;;24.02;17.67;;;;;;;19.97;69.63;101218.00;4933712;29;20488;-73
2021/07/02 00:57:27;;;;;;;26.83;18.70;;;;;;;20.10;68.99;101217.50;4933583;29;20052;-72
2021/07/02 00:59:54;;;;;;;24.33;17.88;;;;;;;19.96;69.36;101219.19;4917106;29;20072;-73
2021/07/02 01:02:23;;;;;;;25.30;18.13;;;;;;;19.82;70.03;101214.03;4933724;29;20054;-74
2021/07/02 01:04:50;;;;;;;24.23;17.90;;;;;;;19.92;69.95;101218.28;4916479;29;20063;-72
2021/07/02 01:07:18;;;;;;;19.70;16.42;;;;;;;19.87;70.21;101213.78;4916536;29;20074;-72
2021/07/02 01:09:46;;;;;;;20.10;16.52;;;;;;;20.02;69.72;101212.13;4901211;29;20050;-77
2021/07/02 01:12:14;;;;;;;19.50;17.42;;;;;;;20.05;69.33;101208.59;4900483;29;20458;-74
2021/07/02 01:14:44;;;;;;;21.75;17.20;;;;;;;20.07;69.39;101212.66;4901564;29;20491;-77
2021/07/02 01:17:13;;;;;;;20.80;17.92;;;;;;;19.99;69.57;101205.28;4930104;29;20043;-77
2021/07/02 01:19:47;;;;;;;21.23;16.83;;;;;;;19.86;70.34;101214.94;4935397;29;20047;-76
2021/07/02 01:22:21;;;;;;;22.77;18.05;;;;;;;20.04;69.91;101216.19;4934829;29;20054;-75
2021/07/02 01:24:49;;;;;;;23.15;18.05;;;;;;;20.01;69.54;101208.50;4919884;29;20048;-75
2021/07/02 01:27:17;;;;;;;20.38;17.70;;;;;;;20.01;69.60;101205.72;4893147;29;20060;-75
2021/07/02 01:29:47;;;;;;;24.23;17.63;;;;;;;19.63;71.35;101208.41;4922819;29;20055;-75
2021/07/02 01:32:17;;;;;;;21.17;17.88;;;;;;;19.86;70.11;101211.34;4916378;29;20062;-74
2021/07/02 01:34:45;;;;;;;22.83;18.20;;;;;;;19.75;71.11;101205.50;4915776;29;20063;-73
2021/07/02 01:37:12;;;;;;;23.42;17.63;;;;;;;19.62;71.04;101205.97;4929699;29;20074;-74
2021/07/02 01:39:42;;;;;;;22.45;17.10;;;;;;;19.72;71.10;101214.63;4935328;29;20051;-72
2021/07/02 01:42:11;;;;;;;25.17;17.95;;;;;;;19.76;70.86;101209.94;4919576;29;20533;-74
2021/07/02 01:44:40;;;;;;;24.67;18.15;;;;;;;19.58;71.87;101203.09;4935220;29;20458;-73
2021/07/02 01:47:10;;;;;;;21.98;17.13;;;;;;;19.73;70.95;101207.88;4922310;29;20052;-74
2021/07/02 01:49:38;;;;;;;21.75;18.17;;;;;;;19.40;72.53;101212.22;4916163;29;20464;-73
2021/07/02 01:52:06;;;;;;;19.83;16.63;;;;;;;19.39;72.87;101208.59;4933251;29;20071;-73
2021/07/02 01:54:34;;;;;;;20.33;17.42;;;;;;;19.36;73.08;101203.75;4899691;29;20060;-74
2021/07/02 01:57:10;;;;;;;20.92;17.52;;;;;;;19.39;72.69;101197.41;4911851;29;20059;-78
2021/07/02 01:59:40;;;;;;;21.45;18.25;;;;;;;19.19;73.88;101200.47;4919844;29;20479;-78
2021/07/02 02:02:11;;;;;;;21.35;17.83;;;;;;;19.40;72.91;101187.88;4935030;29;20418;-76
2021/07/02 02:04:39;;;;;;;23.83;18.33;;;;;;;19.45;72.78;101189.59;4919230;29;20071;-76
2021/07/02 02:07:07;;;;;;;22.00;17.63;;;;;;;19.47;72.29;101176.88;4907121;29;20055;-74
2021/07/02 02:09:36;;;;;;;25.55;18.42;;;;;;;19.38;72.69;101186.63;4899902;29;20048;-75
2021/07/02 02:12:03;;;;;;;22.05;18.08;;;;;;;19.39;72.62;101191.84;4933367;29;20063;-76
2021/07/02 02:14:39;;;;;;;22.77;17.73;;;;;;;19.27;72.84;101191.91;4916958;29;20063;-73
2021/07/02 02:17:10;;;;;;;20.33;17.67;;;;;;;19.12;73.96;101189.09;4931634;29;20064;-76
2021/07/02 02:19:38;;;;;;;20.50;17.55;;;;;;;19.32;72.99;101190.88;4919112;29;20051;-78
2021/07/02 02:22:05;;;;;;;23.33;18.05;;;;;;;19.41;72.71;101189.50;4922165;29;20052;-75
2021/07/02 02:24:39;;;;;;;21.58;17.55;;;;;;;18.95;73.97;101190.28;4939356;29;20066;-74
2021/07/02 02:27:09;;;;;;;21.60;17.40;;;;;;;19.15;73.89;101185.59;4920746;29;20078;-74
2021/07/02 02:29:37;;;;;;;21.30;17.88;;;;;;;19.35;73.12;101181.75;4936967;29;20052;-74
2021/07/02 02:32:05;;;;;;;21.45;18.02;;;;;;;19.43;72.80;101186.34;4918801;29;20044;-73
2021/07/02 02:34:34;;;;;;;21.50;16.98;;;;;;;19.48;72.42;101178.50;4919154;29;20392;-73
2021/07/02 02:37:02;;;;;;;21.52;17.70;;;;;;;19.46;72.60;101175.25;4909471;29;20062;-74
2021/07/02 02:39:31;;;;;;;20.87;18.67;;;;;;;19.60;72.11;101181.19;4919329;29;20052;-73
2021/07/02 02:41:59;;;;;;;22.13;18.27;;;;;;;19.50;72.02;101184.53;4919185;29;20047;-73
2021/07/02 02:44:26;;;;;;;20.27;18.00;;;;;;;19.60;71.82;101183.97;4903859;29;20511;-73
2021/07/02 02:46:54;;;;;;;22.58;17.83;;;;;;;19.41;72.47;101181.13;4927377;29;20052;-74
2021/07/02 02:49:23;;;;;;;24.50;18.25;;;;;;;19.47;72.22;101184.44;4922586;29;20058;-74
2021/07/02 02:51:50;;;;;;;23.17;18.38;;;;;;;19.34;72.73;101180.94;4954981;29;20063;-74
2021/07/02 02:54:19;;;;;;;23.83;19.10;;;;;;;19.33;73.04;101181.31;4938084;29;20495;-77
2021/07/02 02:57:06;;;;;;;25.40;19.25;;;;;;;19.13;73.84;101176.75;4930406;29;20055;-72
2021/07/02 02:59:39;;;;;;;20.73;18.48;;;;;;;19.24;73.58;101177.84;4891279;29;20518;-74
2021/07/02 03:02:10;;;;;;;21.88;18.48;;;;;;;19.32;73.14;101176.91;4919464;29;20040;-73
2021/07/02 03:04:38;;;;;;;29.63;18.35;;;;;;;19.35;73.44;101173.38;4918666;29;20051;-73
2021/07/02 03:07:06;;;;;;;23.33;18.23;;;;;;;19.19;73.49;101178.13;4944884;29;20095;-72
2021/07/02 03:09:36;;;;;;;20.63;17.25;;;;;;;19.10;74.15;101181.09;4922284;29;20510;-73
2021/07/02 03:12:04;;;;;;;20.05;17.45;;;;;;;19.15;74.16;101174.41;4937526;29;20059;-79
2021/07/02 03:14:31;;;;;;;23.15;17.05;;;;;;;19.20;73.89;101169.38;4937356;29;20055;-78
2021/07/02 03:16:59;;;;;;;24.20;17.90;;;;;;;19.36;73.64;101170.22;4913798;29;20051;-73
2021/07/02 03:19:32;;;;;;;21.63;17.33;;;;;;;19.22;73.91;101172.63;4902564;29;20044;-75
2021/07/02 03:22:00;;;;;;;21.05;17.33;;;;;;;19.39;73.24;101169.47;4902302;29;20047;-76
2021/07/02 03:24:29;;;;;;;21.27;17.48;;;;;;;19.45;72.57;101175.63;4917928;29;20055;-78
2021/07/02 03:26:57;;;;;;;20.17;17.17;;;;;;;19.33;73.02;101176.53;4902206;29;20067;-74
2021/07/02 03:29:25;;;;;;;20.23;17.15;;;;;;;19.24;73.79;101181.44;4918561;29;20515;-79
2021/07/02 03:31:53;;;;;;;20.98;17.17;;;;;;;19.27;73.65;101183.50;4916905;29;20059;-78
2021/07/02 03:34:23;;;;;;;20.85;18.30;;;;;;;19.07;74.45;101181.81;4902259;29;20059;-77
2021/07/02 03:36:53;;;;;;;;;;;;;;;18.96;74.59;101180.72;4925007;29;20055;-75
2021/07/02 03:39:21;;;;;;;22.67;16.88;;;;;;;18.86;75.51;101176.44;4936632;29;19922;-75
2021/07/02 03:41:49;;;;;;;23.65;17.48;;;;;;;19.00;74.97;101168.44;4936540;29;20050;-76
2021/07/02 03:44:17;;;;;;;23.50;16.80;;;;;;;19.19;74.01;101175.31;4921417;29;20055;-72
2021/07/02 03:46:47;;;;;;;20.48;16.67;;;;;;;19.19;74.22;101172.53;4947708;29;20052;-74
2021/07/02 03:49:15;;;;;;;21.75;16.95;;;;;;;19.17;73.88;101174.88;4917776;29;20503;-73
2021/07/02 03:51:44;;;;;;;25.83;17.77;;;;;;;19.11;74.12;101179.91;4901450;29;20385;-71
2021/07/02 03:54:12;;;;;;;25.80;17.92;;;;;;;18.77;75.33;101181.41;4934223;29;20055;-72
2021/07/02 03:57:10;;;;;;;25.25;18.25;;;;;;;18.83;75.94;101184.72;4938305;29;20059;-73
2021/07/02 03:59:27;;;;;;;20.65;18.45;;;;;;;18.90;75.23;101176.53;4953887;29;20062;-73
2021/07/02 04:01:54;;;;;;;20.63;17.60;;;;;;;19.06;74.48;101182.97;4953997;29;20043;-72
2021/07/02 04:04:22;;;;;;;22.17;18.13;;;;;;;18.97;74.40;101179.53;4936708;29;20067;-72
2021/07/02 04:06:50;;;;;;;28.92;20.15;;;;;;;18.82;75.34;101188.69;4948469;29;20056;-77
2021/07/02 04:09:17;;;;;;;23.17;19.25;;;;;;;19.04;74.69;101183.31;4935809;29;20047;-72
2021/07/02 04:11:57;;;;;;;;;;;;;;;19.14;74.20;101179.22;4905322;29;20083;-73
2021/07/02 04:14:25;;;;;;;24.08;19.92;;;;;;;18.92;74.81;101182.59;4919189;29;19938;-75
2021/07/02 04:16:53;;;;;;;21.85;17.95;;;;;;;18.90;75.09;101191.31;4924103;29;20062;-74
2021/07/02 04:19:21;;;;;;;24.35;19.80;;;;;;;18.83;75.81;101184.72;4909456;29;20051;-69
2021/07/02 04:21:48;;;;;;;23.85;19.65;;;;;;;18.96;74.88;101187.13;4917839;29;20119;-72
2021/07/02 04:24:16;;;;;;;23.75;20.13;;;;;;;18.92;75.34;101193.75;4919422;29;20055;-72
2021/07/02 04:26:44;;;;;;;25.05;19.23;;;;;;;19.15;74.21;101196.75;4918608;29;20059;-71
2021/07/02 04:29:12;;;;;;;22.90;20.02;;;;;;;19.18;74.20;101196.06;4935859;29;20059;-76
2021/07/02 04:31:40;;;;;;;28.60;20.10;;;;;;;18.94;74.71;101202.59;4934870;29;20064;-76
2021/07/02 04:34:07;;;;;;;24.80;19.38;;;;;;;19.00;74.67;101201.16;4901729;29;20044;-78
2021/07/02 04:36:35;;;;;;;23.15;18.73;;;;;;;19.19;73.84;101192.91;4903913;29;20067;-79
2021/07/02 04:39:06;;;;;;;27.33;20.52;;;;;;;18.85;74.84;101201.94;4921287;29;20411;-80
2021/07/02 04:41:33;;;;;;;23.83;20.35;;;;;;;18.73;75.96;101204.78;4935915;29;20055;-79
2021/07/02 04:44:01;;;;;;;29.90;19.52;;;;;;;19.14;75.01;101201.53;4953712;28;20051;-80
2021/07/02 04:46:32;;;;;;;25.33;19.90;;;;;;;19.21;74.33;101198.13;4951973;29;20544;-74
2021/07/02 04:48:59;;;;;;;24.10;18.65;;;;;;;19.23;73.81;101195.78;4934154;29;20048;-74
2021/07/02 04:51:26;;;;;;;24.33;19.92;;;;;;;19.11;74.58;101196.66;4917499;29;20052;-74
2021/07/02 04:53:54;;;;;;;24.77;19.08;;;;;;;19.47;73.06;101195.63;4916767;29;20075;-73
2021/07/02 04:56:21;;;;;;;22.90;19.15;;;;;;;19.53;73.32;101202.53;4934359;29;20062;-75
2021/07/02 04:58:54;;;;;;;23.08;18.85;;;;;;;19.81;72.21;101206.03;4935076;29;20047;-76
2021/07/02 05:01:23;;;;;;;26.65;18.95;;;;;;;19.62;72.10;101194.78;4918415;29;20050;-73
2021/07/02 05:03:50;;;;;;;22.85;18.52;;;;;;;19.76;72.15;101197.94;4938810;29;20411;-73
2021/07/02 05:06:18;;;;;;;25.05;20.42;;;;;;;19.55;72.26;101194.63;4951867;29;20063;-73
2021/07/02 05:08:46;;;;;;;28.35;20.98;;;;;;;19.59;72.69;101196.34;4904299;29;20051;-74
2021/07/02 05:11:14;;;;;;;27.10;20.90;;;;;;;19.46;72.94;101203.19;4935425;29;20055;-72
2021/07/02 05:13:41;;;;;;;26.15;20.83;;;;;;;19.38;73.68;101207.00;4933889;29;20381;-74
2021/07/02 05:16:09;;;;;;;26.10;20.10;;;;;;;19.54;73.13;101201.38;4932931;29;20384;-73
2021/07/02 05:18:37;;;;;;;27.63;20.60;;;;;;;19.59;72.40;101203.91;4933173;29;20055;-72
2021/07/02 05:21:04;;;;;;;30.30;20.70;;;;;;;19.59;73.08;101201.94;4933808;29;20058;-71
2021/07/02 05:23:32;;;;;;;34.60;21.73;;;;;;;19.60;72.77;101197.94;4900813;29;20050;-75
2021/07/02 05:26:00;;;;;;;39.50;21.60;;;;;;;19.62;72.68;101197.59;4907097;29;20488;-73
2021/07/02 05:28:28;;;;;;;37.53;22.08;;;;;;;19.38;73.80;101195.00;4916661;29;20044;-74
2021/07/02 05:30:56;;;;;;;36.88;21.42;;;;;;;19.50;74.13;101198.50;4933215;29;20062;-76
2021/07/02 05:33:23;;;;;;;29.67;20.95;;;;;;;19.58;73.36;101197.50;4949041;29;20062;-72
2021/07/02 05:35:51;;;;;;;30.05;21.10;;;;;;;19.74;73.28;101197.47;4952625;29;20063;-73
2021/07/02 05:38:19;;;;;;;27.58;20.75;;;;;;;19.86;72.66;101200.16;4920064;29;20062;-72
2021/07/02 05:40:46;;;;;;;30.17;20.13;;;;;;;19.94;72.26;101213.97;4935545;29;20435;-74
2021/07/02 05:43:21;;;;;;;27.10;21.60;;;;;;;19.87;72.07;101205.41;4921063;29;20067;-72
2021/07/02 05:45:49;;;;;;;27.23;20.63;;;;;;;19.87;71.71;101194.22;4933275;29;20557;-73
2021/07/02 05:48:18;;;;;;;27.75;20.60;;;;;;;20.12;71.60;101201.16;4916465;29;20051;-71
2021/07/02 05:50:46;;;;;;;27.50;20.98;;;;;;;19.98;71.90;101202.81;4932493;29;20058;-72
2021/07/02 05:53:16;;;;;;;26.02;20.67;;;;;;;19.81;72.63;101204.06;4929674;29;20066;-73
2021/07/02 05:55:44;;;;;;;26.67;20.98;;;;;;;19.79;72.31;101205.56;4934805;29;20059;-76
2021/07/02 05:58:13;;;;;;;27.42;20.65;;;;;;;19.85;72.78;101213.34;4955442;29;20058;-75
2021/07/02 06:00:41;;;;;;;25.50;21.27;;;;;;;19.89;71.85;101211.41;4892207;29;20052;-73
2021/07/02 06:03:08;;;;;;;30.77;20.75;;;;;;;20.04;71.72;101206.97;4926135;29;20071;-75
2021/07/02 06:05:36;;;;;;;28.05;21.77;;;;;;;19.92;71.17;101199.53;4919913;29;20522;-75
2021/07/02 06:08:07;;;;;;;30.27;21.30;;;;;;;19.77;72.22;101207.94;4949392;29;20066;-73
2021/07/02 06:10:35;;;;;;;29.60;21.98;;;;;;;19.77;72.46;101205.94;4923126;29;20051;-76
2021/07/02 06:13:03;;;;;;;27.30;23.00;;;;;;;20.05;71.76;101211.38;4956881;29;20055;-75
2021/07/02 06:15:32;;;;;;;27.35;21.70;;;;;;;20.15;71.55;101206.03;4956208;29;20487;-73
2021/07/02 06:18:12;;;;;;;30.17;21.35;;;;;;;20.26;70.96;101199.91;4911174;29;20511;-75
2021/07/02 06:20:40;;;;;;;27.40;21.10;;;;;;;20.35;70.71;101201.28;4936779;29;20051;-77
2021/07/02 06:23:07;;;;;;;29.98;20.88;;;;;;;20.43;70.19;101207.88;4936934;29;20522;-74
2021/07/02 06:25:35;;;;;;;35.15;22.38;;;;;;;20.44;70.71;101201.06;4919861;29;20056;-75
2021/07/02 06:28:02;;;;;;;29.98;22.25;;;;;;;20.38;70.42;101202.56;4930592;29;20051;-75
2021/07/02 06:30:34;;;;;;;35.55;23.73;;;;;;;20.37;70.22;101198.13;4954860;29;20431;-74
2021/07/02 06:33:02;;;;;;;30.42;22.88;;;;;;;20.21;70.98;101203.00;4938582;29;20055;-74
2021/07/02 06:35:31;;;;;;;32.20;23.47;;;;;;;20.29;70.76;101199.97;4907244;29;20052;-73
2021/07/02 06:37:58;;;;;;;29.75;22.98;;;;;;;20.24;70.84;101199.47;4937895;29;20062;-72
2021/07/02 06:40:27;;;;;;;34.85;23.75;;;;;;;20.46;70.24;101196.75;4938121;29;20054;-72
2021/07/02 06:42:54;;;;;;;32.28;23.33;;;;;;;20.74;69.05;101199.31;4955642;29;20051;-72
2021/07/02 06:45:22;;;;;;;31.98;21.92;;;;;;;20.61;69.76;101204.25;4954883;29;20380;-72
2021/07/02 06:47:56;;;;;;;34.38;23.70;;;;;;;20.43;69.94;101205.88;4945474;29;20048;-72
2021/07/02 06:50:26;;;;;;;41.67;23.73;;;;;;;20.70;69.00;101198.41;4936503;29;20099;-72
2021/07/02 06:52:54;;;;;;;34.93;24.17;;;;;;;20.85;68.78;101203.13;4937137;29;20060;-75
2021/07/02 06:55:22;;;;;;;38.35;25.23;;;;;;;20.99;68.59;101203.44;4936908;29;20055;-73
2021/07/02 06:57:50;;;;;;;37.28;25.33;;;;;;;21.59;66.53;101210.06;4926865;29;20435;-72
2021/07/02 07:00:19;;;;;;;38.17;25.85;;;;;;;21.02;67.53;101203.50;4924604;29;20411;-74
2021/07/02 07:02:47;;;;;;;38.97;25.70;;;;;;;20.84;69.34;101209.91;4918807;29;20062;-72
2021/07/02 07:05:15;;;;;;;33.33;25.55;;;;;;;20.81;67.82;101219.84;4955121;29;20215;-76
2021/07/02 07:07:49;;;;;;;36.22;24.58;;;;;;;21.10;69.25;101215.63;4947651;28;20043;-74
2021/07/02 07:10:17;;;;;;;36.72;25.10;;;;;;;20.78;70.79;101220.56;4954667;29;20043;-75
2021/07/02 07:12:44;;;;;;;37.05;24.40;;;;;;;21.35;68.83;101211.28;4954825;29;20039;-75
2021/07/02 07:15:13;;;;;;;33.83;26.08;;;;;;;21.78;65.59;101205.22;4954710;29;20098;-73
2021/07/02 07:17:41;;;;;;;36.33;24.38;;;;;;;21.29;69.13;101209.97;4949589;29;20048;-74
2021/07/02 07:20:10;;;;;;;36.70;25.52;;;;;;;21.17;67.67;101210.16;4934969;29;20040;-74
2021/07/02 07:22:37;;;;;;;34.13;24.65;;;;;;;21.13;66.97;101206.50;4917773;29;20077;-74
2021/07/02 07:25:06;;;;;;;39.60;26.20;;;;;;;21.01;67.79;101212.25;4934565;29;20048;-74
2021/07/02 07:27:33;;;;;;;36.28;24.95;;;;;;;21.02;67.19;101211.91;4937752;29;20062;-78
2021/07/02 07:30:00;;;;;;;20.98;15.07;;;;;;;22.31;75.02;101215.22;4954249;29;20073;-59
2021/07/02 07:32:28;;;;;;;26.77;17.88;;;;;;;22.99;70.09;101209.25;4937665;29;20055;-53
2021/07/02 07:34:59;;;;;;;31.15;19.73;;;;;;;23.36;68.43;101210.03;4933860;29;20063;-57
2021/07/02 07:37:29;;;;;;;27.17;19.45;;;;;;;23.56;65.41;101207.00;4915860;29;20518;-61
2021/07/02 07:39:58;;;;;;;;;;;;;;;23.69;60.74;101202.69;4929288;29;20133;-60
2021/07/02 07:42:25;;;;;;;25.85;17.92;;;;;;;23.93;57.57;101207.69;4935105;29;20294;-67
2021/07/02 07:44:53;;;;;;;28.02;18.70;;;;;;;24.15;57.77;101209.44;4901688;29;20059;-62
2021/07/02 07:47:20;;;;;;;24.95;17.17;;;;;;;24.23;56.23;101206.28;4916717;29;20480;-61
2021/07/02 07:49:48;;;;;;;23.95;16.23;;;;;;;24.19;56.04;101216.75;4918321;29;20065;-61
2021/07/02 07:52:36;;;;;;;20.88;16.83;;;;;;;24.20;56.10;101212.72;4915245;29;20139;-62
2021/07/02 07:55:04;;;;;;;19.98;16.13;;;;;;;24.29;55.73;101218.78;4915157;29;20048;-65
2021/07/02 07:57:31;;;;;;;20.83;15.30;;;;;;;24.34;56.04;101214.78;4915556;29;20201;-67
2021/07/02 07:59:59;;;;;;;19.08;15.20;;;;;;;24.16;53.72;101214.72;4935730;29;20043;-63
2021/07/02 08:02:26;;;;;;;24.20;16.48;;;;;;;24.01;54.76;101218.63;4934639;29;20056;-69
2021/07/02 08:04:53;;;;;;;20.85;14.95;;;;;;;24.12;55.48;101227.94;4916750;29;20062;-61
2021/07/02 08:07:21;;;;;;;23.45;15.45;;;;;;;24.18;54.71;101223.56;4916644;29;20055;-60
2021/07/02 08:09:48;;;;;;;19.67;15.35;;;;;;;24.14;54.99;101219.09;4932220;29;20058;-61
2021/07/02 08:12:17;;;;;;;18.60;15.05;;;;;;;24.29;54.38;101223.59;4933985;29;20066;-61
2021/07/02 08:14:46;;;;;;;18.13;13.73;;;;;;;24.43;54.21;101227.31;4933797;29;20125;-65
2021/07/02 08:17:14;;;;;;;19.75;14.65;;;;;;;24.50;53.74;101227.34;4933334;29;20052;-59
2021/07/02 08:19:41;;;;;;;23.02;14.55;;;;;;;24.57;53.88;101226.56;4898986;29;20059;-60
2021/07/02 08:22:08;;;;;;;20.20;12.77;;;;;;;24.81;52.17;101223.06;4898116;29;20063;-59
2021/07/02 08:24:36;;;;;;;14.73;11.40;;;;;;;25.03;51.53;101224.75;4915012;29;20056;-61
2021/07/02 08:27:06;;;;;;;20.45;12.98;;;;;;;25.04;51.34;101219.91;4897265;29;20070;-59
2021/07/02 08:29:33;;;;;;;;;;;;;;;24.95;51.02;101222.31;4916709;29;20276;-62
2021/07/02 08:32:01;;;;;;;21.98;11.98;;;;;;;25.02;52.50;101219.53;4907252;29;19934;-65
2021/07/02 08:34:28;;;;;;;16.67;12.60;;;;;;;24.91;51.89;101219.50;4930139;29;20456;-57
2021/07/02 08:36:56;;;;;;;19.63;13.65;;;;;;;24.79;52.80;101211.41;4916059;29;20078;-64
2021/07/02 08:39:23;;;;;;;19.83;13.32;;;;;;;24.94;52.21;101215.88;4929450;29;20066;-67
2021/07/02 08:41:51;;;;;;;16.40;12.60;;;;;;;25.03;51.99;101219.13;4952638;29;20043;-68
2021/07/02 08:44:18;;;;;;;19.90;11.55;;;;;;;24.62;52.53;101217.72;4935481;29;20385;-66
2021/07/02 08:46:46;;;;;;;16.25;10.88;;;;;;;24.43;53.21;101210.41;4952706;29;20055;-66
2021/07/02 08:49:31;;;;;;;15.25;11.98;;;;;;;25.05;50.80;101210.25;4951793;29;20066;-68
2021/07/02 08:51:59;;;;;;;14.77;11.27;;;;;;;24.72;52.11;101199.31;4952495;29;20047;-67
2021/07/02 08:54:27;;;;;;;16.27;12.15;;;;;;;24.60;52.57;101200.41;4952028;29;20055;-67
2021/07/02 08:56:57;;;;;;;16.30;10.55;;;;;;;24.77;51.98;101207.38;4952763;29;20051;-68
2021/07/02 08:59:26;;;;;;;14.90;11.80;;;;;;;24.32;51.47;101203.13;4939195;29;20067;-67
2021/07/02 09:01:54;;;;;;;17.05;12.07;;;;;;;23.88;53.31;101208.88;4934000;29;20411;-63
2021/07/02 09:04:31;;;;;;;14.50;11.35;;;;;;;23.88;53.96;101203.25;4933302;29;20385;-68
2021/07/02 09:07:09;;;;;;;13.77;11.15;;;;;;;24.00;53.66;101205.75;4933482;29;20051;-66
2021/07/02 09:09:57;;;;;;;16.90;10.98;;;;;;;23.99;53.53;101197.69;4917257;29;20426;-66
2021/07/02 09:12:26;;;;;;;15.98;11.20;;;;;;;24.03;52.43;101193.72;4942639;29;20058;-67
2021/07/02 09:15:00;;;;;;;14.82;10.05;;;;;;;24.34;52.87;101195.06;4952296;29;20059;-69
2021/07/02 09:17:50;;;;;;;15.30;10.90;;;;;;;24.29;53.19;101195.44;4934346;29;20499;-67
2021/07/02 09:20:21;;;;;;;17.30;11.80;;;;;;;23.90;52.30;101189.56;4952158;29;20066;-68
2021/07/02 09:22:54;;;;;;;14.07;10.40;;;;;;;23.56;54.79;101184.50;4923281;29;20058;-67
2021/07/02 09:25:36;;;;;;;15.10;10.25;;;;;;;24.12;51.91;101180.09;4933112;29;20039;-68
2021/07/02 09:28:05;;;;;;;13.32;9.43;;;;;;;23.88;53.89;101185.53;4933155;29;20067;-65
2021/07/02 09:30:52;;;;;;;13.95;9.82;;;;;;;24.08;53.74;101184.88;4933186;29;20048;-69
2021/07/02 09:33:22;;;;;;;13.20;9.88;;;;;;;24.39;53.00;101186.28;4947983;29;20059;-66
2021/07/02 09:35:53;;;;;;;13.82;9.52;;;;;;;24.50;52.17;101181.47;4940388;28;20689;-66
2021/07/02 09:38:35;;;;;;;13.88;9.18;;;;;;;24.66;51.41;101178.31;4925001;28;20519;-65
2021/07/02 09:41:04;;;;;;;13.40;9.00;;;;;;;24.20;52.83;101181.75;4950893;28;20055;-66
2021/07/02 09:43:32;;;;;;;16.83;9.55;;;;;;;23.89;53.37;101171.06;4947367;29;20616;-66
2021/07/02 09:46:04;;;;;;;12.15;9.23;;;;;;;24.08;52.36;101168.00;4938002;28;20048;-68
2021/07/02 09:48:34;;;;;;;13.82;9.77;;;;;;;24.32;52.34;101178.56;4932362;29;20051;-64
2021/07/02 09:51:05;;;;;;;16.77;10.80;;;;;;;24.75;51.19;101167.50;4923645;29;20052;-62
2021/07/02 09:53:35;;;;;;;11.13;8.90;;;;;;;24.62;51.17;101169.84;4915182;29;20047;-61
2021/07/02 09:56:09;;;;;;;12.63;8.88;;;;;;;24.74;51.10;101171.53;4942886;29;20439;-63
2021/07/02 09:58:39;;;;;;;10.73;8.38;;;;;;;24.88;50.89;101171.56;4932737;29;20416;-63
2021/07/02 10:01:08;;;;;;;16.63;9.05;;;;;;;24.93;51.39;101165.53;4932781;29;20048;-63
2021/07/02 10:03:41;;;;;;;10.95;7.75;;;;;;;25.27;49.92;101175.25;4932864;29;20048;-63
2021/07/02 10:06:18;;;;;;;14.07;7.80;;;;;;;25.56;48.76;101162.78;4944475;29;20392;-61
2021/07/02 10:08:49;;;;;;;15.63;8.20;;;;;;;25.65;48.83;101159.56;4934913;29;20054;-59
2021/07/02 10:11:17;;;;;;;13.07;8.40;;;;;;;25.24;49.88;101157.13;4951807;29;20047;-58
2021/07/02 10:13:46;;;;;;;9.93;7.47;;;;;;;25.29;48.90;101162.38;4950096;29;20055;-59
2021/07/02 10:16:14;;;;;;;9.53;6.50;;;;;;;25.56;46.93;101162.78;4939003;28;20048;-60
2021/07/02 10:18:49;;;;;;;11.70;7.22;;;;;;;25.43;47.47;101158.75;4932146;29;20062;-59
2021/07/02 10:21:19;;;;;;;14.32;7.20;;;;;;;25.71;47.55;101157.94;4932369;29;20048;-60
2021/07/02 10:23:48;;;;;;;12.15;7.45;;;;;;;26.16;46.82;101159.88;4932547;29;20055;-58
2021/07/02 10:26:16;;;;;;;8.88;6.93;;;;;;;26.26;46.66;101161.84;4943789;29;20047;-55
2021/07/02 10:28:44;;;;;;;10.80;7.43;;;;;;;26.28;46.18;101165.88;4950011;29;20051;-61
2021/07/02 10:31:13;;;;;;;20.77;7.50;;;;;;;26.16;46.82;101151.41;4950868;28;20227;-61
2021/07/02 10:33:45;;;;;;;16.90;7.80;;;;;;;26.11;47.65;101161.09;4945611;28;20055;-60
2021/07/02 10:36:15;;;;;;;10.90;7.55;;;;;;;25.67;46.28;101159.94;4931882;29;20047;-58
2021/07/02 10:38:45;;;;;;;12.18;7.97;;;;;;;25.35;49.21;101165.59;4932127;29;20058;-59
2021/07/02 10:41:25;;;;;;;11.30;8.02;;;;;;;25.63;47.87;101159.94;4930444;29;20048;-61
2021/07/02 10:44:10;;;;;;;12.65;8.38;;;;;;;26.00;47.41;101159.47;4940171;29;20067;-60
2021/07/02 10:46:39;;;;;;;11.52;8.25;;;;;;;26.06;45.63;101157.88;4954931;29;20051;-61
2021/07/02 10:49:11;;;;;;;13.27;8.10;;;;;;;26.14;46.82;101165.13;4955120;28;20043;-62
2021/07/02 10:51:46;;;;;;;14.60;7.68;;;;;;;26.22;46.68;101158.25;4953655;28;20064;-62
2021/07/02 10:54:17;;;;;;;10.52;7.13;;;;;;;26.42;44.78;101165.81;4944948;28;20051;-62
2021/07/02 10:56:56;;;;;;;18.25;8.73;;;;;;;26.39;45.83;101152.53;4935807;29;20055;-61
2021/07/02 10:59:42;;;;;;;14.43;7.75;;;;;;;26.23;46.75;101152.19;4935304;29;20507;-62
2021/07/02 11:02:09;;;;;;;10.73;7.40;;;;;;;25.33;46.07;101156.72;4935418;29;20117;-62
2021/07/02 11:04:41;;;;;;;9.75;6.43;;;;;;;25.13;47.56;101144.22;4945583;29;20066;-61
2021/07/02 11:07:08;;;;;;;9.55;6.80;;;;;;;24.85;47.80;101150.63;4952234;29;20047;-62
2021/07/02 11:09:58;;;;;;;10.85;6.50;;;;;;;24.77;46.42;101151.00;4954508;28;20400;-61
2021/07/02 11:12:56;;;;;;;14.52;7.85;;;;;;;25.28;47.81;101132.53;4954107;28;20055;-60
2021/07/02 11:15:24;;;;;;;10.05;7.15;;;;;;;25.52;47.52;101145.84;4875623;29;20131;-59
2021/07/02 11:18:09;;;;;;;11.32;6.47;;;;;;;25.96;44.66;101139.72;4860140;29;20476;-59
2021/07/02 11:20:37;;;;;;;8.45;6.50;;;;;;;25.29;45.78;101133.34;4875174;29;20061;-58
2021/07/02 11:23:14;;;;;;;9.25;6.25;;;;;;;25.43;45.27;101128.53;4875405;29;20448;-59